createdAt,value
2017-01-15T00:00:25.422Z,0
2017-01-15T00:01:25.429Z,0
2017-01-15T00:02:25.442Z,0
2017-01-15T00:03:25.453Z,0
2017-01-15T00:04:25.463Z,0
2017-01-15T00:05:25.473Z,0
2017-01-15T00:06:25.488Z,0
2017-01-15T00:07:25.500Z,0
2017-01-15T00:08:25.534Z,0
2017-01-15T00:09:25.521Z,0
2017-01-15T00:10:25.535Z,0
2017-01-15T00:11:25.548Z,0
2017-01-15T00:12:25.556Z,0
2017-01-15T00:13:25.571Z,0
2017-01-15T00:14:25.578Z,0
2017-01-15T00:15:25.587Z,0
2017-01-15T00:16:25.598Z,0
2017-01-15T00:17:25.611Z,0
2017-01-15T00:18:25.627Z,0
2017-01-15T00:19:25.638Z,0
2017-01-15T00:20:25.652Z,0
2017-01-15T00:21:25.658Z,0
2017-01-15T00:22:25.670Z,0
2017-01-15T00:23:25.674Z,0
2017-01-15T00:24:25.690Z,0
2017-01-15T00:25:25.703Z,0
2017-01-15T00:26:25.709Z,0
2017-01-15T00:27:25.722Z,0
2017-01-15T00:28:25.741Z,0
2017-01-15T00:29:25.740Z,0
2017-01-15T00:30:25.756Z,0
2017-01-15T00:31:25.767Z,0
2017-01-15T00:32:25.780Z,0
2017-01-15T00:33:25.798Z,0
2017-01-15T00:34:25.800Z,0
2017-01-15T00:35:25.819Z,0
2017-01-15T00:36:25.823Z,0
2017-01-15T00:37:25.840Z,0
2017-01-15T00:38:25.849Z,0
2017-01-15T00:39:25.859Z,0
2017-01-15T00:40:25.869Z,0
2017-01-15T00:41:25.873Z,0
2017-01-15T00:42:25.898Z,0
2017-01-15T00:43:25.902Z,0
2017-01-15T00:44:25.909Z,0
2017-01-15T00:45:25.923Z,0
2017-01-15T00:46:25.936Z,0
2017-01-15T00:47:25.945Z,0
2017-01-15T00:48:25.955Z,0
2017-01-15T00:49:25.970Z,0
2017-01-15T00:50:25.980Z,0
2017-01-15T00:51:25.994Z,0
2017-01-15T00:52:26.399Z,0
2017-01-15T00:53:26.008Z,0
2017-01-15T00:54:26.021Z,0
2017-01-15T00:55:26.032Z,0
2017-01-15T00:56:26.047Z,0
2017-01-15T00:57:26.052Z,0
2017-01-15T00:58:26.067Z,0
2017-01-15T00:59:26.080Z,0
2017-01-15T01:00:26.092Z,0
2017-01-15T01:01:26.101Z,0
2017-01-15T01:02:26.111Z,0
2017-01-15T01:03:26.127Z,0
2017-01-15T01:04:26.131Z,0
2017-01-15T01:05:26.149Z,0
2017-01-15T01:06:26.152Z,0
2017-01-15T01:07:26.174Z,0
2017-01-15T01:08:26.179Z,0
2017-01-15T01:09:26.193Z,0
2017-01-15T01:10:26.204Z,0
2017-01-15T01:11:26.231Z,0
2017-01-15T01:12:26.228Z,0
2017-01-15T01:13:26.237Z,0
2017-01-15T01:14:26.272Z,0
2017-01-15T01:15:26.263Z,0
2017-01-15T01:16:26.276Z,0
2017-01-15T01:17:26.281Z,0
2017-01-15T01:18:26.294Z,0
2017-01-15T01:19:26.312Z,0
2017-01-15T01:20:26.322Z,0
2017-01-15T01:21:26.324Z,0
2017-01-15T01:22:26.342Z,0
2017-01-15T01:23:26.347Z,0
2017-01-15T01:24:26.360Z,0
2017-01-15T01:25:26.365Z,0
2017-01-15T01:26:26.384Z,0
2017-01-15T01:27:26.396Z,0
2017-01-15T01:28:26.408Z,0
2017-01-15T01:29:26.420Z,0
2017-01-15T01:30:26.426Z,0
2017-01-15T01:31:26.444Z,0
2017-01-15T01:32:26.451Z,0
2017-01-15T01:33:26.468Z,0
2017-01-15T01:34:26.498Z,0
2017-01-15T01:35:26.487Z,0
2017-01-15T01:36:26.498Z,0
2017-01-15T01:37:26.514Z,0
2017-01-15T01:38:26.514Z,0
2017-01-15T01:39:26.526Z,0
2017-01-15T01:40:26.536Z,0
2017-01-15T01:41:26.567Z,0
2017-01-15T01:42:26.561Z,0
2017-01-15T01:43:26.575Z,0
2017-01-15T01:44:26.587Z,0
2017-01-15T01:45:26.600Z,0
2017-01-15T01:46:26.606Z,0
2017-01-15T01:47:26.619Z,0
2017-01-15T01:48:26.629Z,0
2017-01-15T01:49:26.634Z,0
2017-01-15T01:50:26.648Z,0
2017-01-15T01:51:26.659Z,0
2017-01-15T01:52:26.677Z,0
2017-01-15T01:53:26.688Z,0
2017-01-15T01:54:26.693Z,0
2017-01-15T01:55:26.711Z,0
2017-01-15T01:56:26.721Z,0
2017-01-15T01:57:26.725Z,0
2017-01-15T01:58:26.742Z,0
2017-01-15T01:59:26.764Z,0
2017-01-15T02:00:26.762Z,0
2017-01-15T02:01:26.775Z,0
2017-01-15T02:02:26.806Z,0
2017-01-15T02:03:26.890Z,0
2017-01-15T02:04:26.833Z,0
2017-01-15T02:05:26.820Z,0
2017-01-15T02:06:26.830Z,0
2017-01-15T02:07:26.839Z,0
2017-01-15T02:08:26.852Z,0
2017-01-15T02:09:26.866Z,0
2017-01-15T02:10:26.880Z,0
2017-01-15T02:11:26.882Z,0
2017-01-15T02:12:26.908Z,0
2017-01-15T02:13:26.908Z,0
2017-01-15T02:14:26.921Z,0
2017-01-15T02:15:26.932Z,0
2017-01-15T02:16:26.939Z,0
2017-01-15T02:17:26.968Z,0
2017-01-15T02:18:26.966Z,0
2017-01-15T02:19:27.012Z,0
2017-01-15T02:20:27.057Z,0
2017-01-15T02:21:27.000Z,0
2017-01-15T02:22:27.035Z,0
2017-01-15T02:23:27.024Z,0
2017-01-15T02:24:27.058Z,0
2017-01-15T02:25:27.044Z,0
2017-01-15T02:26:27.064Z,0
2017-01-15T02:27:27.075Z,0
2017-01-15T02:28:27.079Z,0
2017-01-15T02:29:27.091Z,0
2017-01-15T02:30:27.103Z,0
2017-01-15T02:31:27.111Z,0
2017-01-15T02:32:27.129Z,0
2017-01-15T02:33:27.139Z,0
2017-01-15T02:34:27.176Z,0
2017-01-15T02:35:27.157Z,0
2017-01-15T02:36:27.165Z,0
2017-01-15T02:37:27.179Z,0
2017-01-15T02:38:27.189Z,0
2017-01-15T02:39:27.201Z,0
2017-01-15T02:40:27.217Z,0
2017-01-15T02:41:27.224Z,0
2017-01-15T02:42:27.238Z,0
2017-01-15T02:43:27.271Z,0
2017-01-15T02:44:27.252Z,0
2017-01-15T02:45:27.271Z,0
2017-01-15T02:46:27.281Z,0
2017-01-15T02:47:27.293Z,0
2017-01-15T02:48:27.301Z,0
2017-01-15T02:49:27.313Z,0
2017-01-15T02:50:27.336Z,0
2017-01-15T02:51:27.404Z,0
2017-01-15T02:52:27.809Z,0
2017-01-15T02:53:27.364Z,0
2017-01-15T02:54:27.367Z,0
2017-01-15T02:55:27.374Z,0
2017-01-15T02:56:27.392Z,0
2017-01-15T02:57:27.401Z,0
2017-01-15T02:58:27.421Z,0
2017-01-15T02:59:27.435Z,0
2017-01-15T03:00:27.438Z,0
2017-01-15T03:01:27.452Z,0
2017-01-15T03:02:27.458Z,0
2017-01-15T03:03:27.470Z,0
2017-01-15T03:04:27.484Z,0
2017-01-15T03:05:27.496Z,0
2017-01-15T03:06:27.505Z,0
2017-01-15T03:07:27.520Z,0
2017-01-15T03:08:27.523Z,0
2017-01-15T03:09:27.539Z,0
2017-01-15T03:10:27.545Z,0
2017-01-15T03:11:27.563Z,0
2017-01-15T03:12:27.576Z,0
2017-01-15T03:13:27.582Z,0
2017-01-15T03:14:27.596Z,0
2017-01-15T03:15:27.602Z,0
2017-01-15T03:16:27.624Z,0
2017-01-15T03:17:27.626Z,0
2017-01-15T03:18:27.634Z,0
2017-01-15T03:19:28.050Z,0
2017-01-15T03:20:27.658Z,0
2017-01-15T03:21:27.669Z,0
2017-01-15T03:22:27.686Z,0
2017-01-15T03:23:27.692Z,0
2017-01-15T03:24:27.709Z,0
2017-01-15T03:25:27.714Z,0
2017-01-15T03:26:27.725Z,0
2017-01-15T03:27:27.737Z,0
2017-01-15T03:28:27.748Z,0
2017-01-15T03:29:27.790Z,0
2017-01-15T03:30:27.781Z,0
2017-01-15T03:31:27.795Z,0
2017-01-15T03:32:27.796Z,0
2017-01-15T03:33:27.807Z,0
2017-01-15T03:34:27.821Z,0
2017-01-15T03:35:27.825Z,0
2017-01-15T03:36:27.836Z,0
2017-01-15T03:37:27.850Z,0
2017-01-15T03:38:27.856Z,0
2017-01-15T03:39:27.873Z,0
2017-01-15T03:40:27.883Z,0
2017-01-15T03:41:27.895Z,0
2017-01-15T03:42:27.901Z,0
2017-01-15T03:43:27.916Z,0
2017-01-15T03:44:27.924Z,0
2017-01-15T03:45:27.936Z,0
2017-01-15T03:46:27.947Z,0
2017-01-15T03:47:27.960Z,0
2017-01-15T03:48:27.971Z,0
2017-01-15T03:49:27.985Z,0
2017-01-15T03:50:28.016Z,0
2017-01-15T03:51:28.004Z,0
2017-01-15T03:52:28.011Z,0
2017-01-15T03:53:28.052Z,0
2017-01-15T03:54:28.038Z,0
2017-01-15T03:55:28.053Z,0
2017-01-15T03:56:28.058Z,0
2017-01-15T03:57:28.070Z,0
2017-01-15T03:58:28.075Z,0
2017-01-15T03:59:28.087Z,0
2017-01-15T04:00:28.104Z,0
2017-01-15T04:01:28.119Z,0
2017-01-15T04:02:28.125Z,0
2017-01-15T04:03:28.135Z,0
2017-01-15T04:04:28.149Z,0
2017-01-15T04:05:28.154Z,0
2017-01-15T04:06:28.168Z,0
2017-01-15T04:07:28.171Z,0
2017-01-15T04:08:28.185Z,0
2017-01-15T04:09:28.193Z,0
2017-01-15T04:10:28.210Z,0
2017-01-15T04:11:28.221Z,0
2017-01-15T04:12:28.227Z,0
2017-01-15T04:13:28.245Z,0
2017-01-15T04:14:28.266Z,0
2017-01-15T04:15:28.266Z,0
2017-01-15T04:16:28.285Z,0
2017-01-15T04:17:28.287Z,0
2017-01-15T04:18:28.307Z,0
2017-01-15T04:19:28.302Z,0
2017-01-15T04:20:28.315Z,0
2017-01-15T04:21:28.356Z,0
2017-01-15T04:22:28.344Z,0
2017-01-15T04:23:28.352Z,0
2017-01-15T04:24:28.364Z,0
2017-01-15T04:25:28.404Z,0
2017-01-15T04:26:28.378Z,0
2017-01-15T04:27:28.396Z,0
2017-01-15T04:28:28.406Z,0
2017-01-15T04:29:28.415Z,0
2017-01-15T04:30:28.426Z,0
2017-01-15T04:31:28.440Z,0
2017-01-15T04:32:28.448Z,0
2017-01-15T04:33:28.464Z,0
2017-01-15T04:34:28.471Z,0
2017-01-15T04:35:28.482Z,0
2017-01-15T04:36:28.495Z,0
2017-01-15T04:37:28.506Z,0
2017-01-15T04:38:28.516Z,0
2017-01-15T04:39:28.528Z,0
2017-01-15T04:40:28.537Z,0
2017-01-15T04:41:28.546Z,0
2017-01-15T04:42:28.555Z,0
2017-01-15T04:43:28.571Z,0
2017-01-15T04:44:28.584Z,0
2017-01-15T04:45:28.647Z,0
2017-01-15T04:46:28.603Z,0
2017-01-15T04:47:28.615Z,0
2017-01-15T04:48:28.623Z,0
2017-01-15T04:49:28.631Z,0
2017-01-15T04:50:28.644Z,0
2017-01-15T04:51:28.654Z,0
2017-01-15T04:52:28.670Z,0
2017-01-15T04:53:28.686Z,0
2017-01-15T04:54:28.688Z,0
2017-01-15T04:55:28.701Z,0
2017-01-15T04:56:28.712Z,0
2017-01-15T04:57:28.723Z,0
2017-01-15T04:58:28.732Z,0
2017-01-15T04:59:28.746Z,0
2017-01-15T05:00:28.750Z,0
2017-01-15T05:01:28.767Z,0
2017-01-15T05:02:28.773Z,0
2017-01-15T05:03:28.788Z,0
2017-01-15T05:04:28.799Z,0
2017-01-15T05:05:28.807Z,0
2017-01-15T05:06:28.819Z,0
2017-01-15T05:07:28.833Z,0
2017-01-15T05:08:28.839Z,0
2017-01-15T05:09:28.853Z,0
2017-01-15T05:10:28.858Z,0
2017-01-15T05:11:28.874Z,0
2017-01-15T05:12:28.883Z,0
2017-01-15T05:13:28.893Z,0
2017-01-15T05:14:28.904Z,0
2017-01-15T05:15:28.912Z,0
2017-01-15T05:16:28.927Z,0
2017-01-15T05:17:28.934Z,0
2017-01-15T05:18:28.951Z,0
2017-01-15T05:19:28.954Z,0
2017-01-15T05:20:28.965Z,0
2017-01-15T05:21:28.975Z,0
2017-01-15T05:22:28.996Z,0
2017-01-15T05:23:29.004Z,0
2017-01-15T05:24:29.014Z,0
2017-01-15T05:25:29.024Z,0
2017-01-15T05:26:29.058Z,0
2017-01-15T05:27:29.041Z,0
2017-01-15T05:28:29.056Z,0
2017-01-15T05:29:29.064Z,0
2017-01-15T05:30:29.077Z,0
2017-01-15T05:31:29.087Z,0
2017-01-15T05:32:29.097Z,0
2017-01-15T05:33:29.110Z,0
2017-01-15T05:34:29.116Z,0
2017-01-15T05:35:29.130Z,0
2017-01-15T05:36:29.148Z,0
2017-01-15T05:37:29.160Z,0
2017-01-15T05:38:29.166Z,0
2017-01-15T05:39:29.169Z,0
2017-01-15T05:40:29.184Z,0
2017-01-15T05:41:29.189Z,0
2017-01-15T05:42:29.208Z,0
2017-01-15T05:43:29.217Z,0
2017-01-15T05:44:29.227Z,0
2017-01-15T05:45:29.231Z,0
2017-01-15T05:46:29.249Z,0
2017-01-15T05:47:29.255Z,0
2017-01-15T05:48:29.266Z,0
2017-01-15T05:49:29.277Z,0
2017-01-15T05:50:29.287Z,0
2017-01-15T05:51:29.301Z,0
2017-01-15T05:52:29.316Z,0
2017-01-15T05:53:29.324Z,0
2017-01-15T05:54:29.329Z,0
2017-01-15T05:55:29.344Z,0
2017-01-15T05:56:29.355Z,0
2017-01-15T05:57:29.373Z,0
2017-01-15T05:58:29.376Z,0
2017-01-15T05:59:29.387Z,0
2017-01-15T06:00:29.407Z,0
2017-01-15T06:01:29.406Z,0
2017-01-15T06:02:29.413Z,0
2017-01-15T06:03:29.425Z,0
2017-01-15T06:04:29.440Z,0
2017-01-15T06:05:29.457Z,0
2017-01-15T06:06:29.459Z,0
2017-01-15T06:07:29.470Z,0
2017-01-15T06:08:29.492Z,0
2017-01-15T06:09:29.496Z,0
2017-01-15T06:10:29.508Z,0
2017-01-15T06:11:29.625Z,0
2017-01-15T06:12:29.556Z,0
2017-01-15T06:13:29.533Z,0
2017-01-15T06:14:29.543Z,0
2017-01-15T06:15:29.554Z,0
2017-01-15T06:16:29.564Z,0
2017-01-15T06:17:29.584Z,0
2017-01-15T06:18:29.592Z,0
2017-01-15T06:19:29.604Z,0
2017-01-15T06:20:29.612Z,0
2017-01-15T06:21:29.629Z,0
2017-01-15T06:22:29.638Z,0
2017-01-15T06:23:29.646Z,0
2017-01-15T06:24:29.662Z,0
2017-01-15T06:25:29.657Z,0
2017-01-15T06:26:29.676Z,0
2017-01-15T06:27:29.683Z,0
2017-01-15T06:28:29.696Z,0
2017-01-15T06:29:29.706Z,0
2017-01-15T06:30:29.744Z,0
2017-01-15T06:31:29.730Z,0
2017-01-15T06:32:29.748Z,0
2017-01-15T06:33:29.751Z,0
2017-01-15T06:34:29.768Z,0
2017-01-15T06:35:29.981Z,0
2017-01-15T06:36:29.776Z,0
2017-01-15T06:37:29.795Z,0
2017-01-15T06:38:29.804Z,0
2017-01-15T06:39:29.930Z,0
2017-01-15T06:40:29.831Z,0
2017-01-15T06:41:29.964Z,0
2017-01-15T06:42:29.859Z,0
2017-01-15T06:43:29.862Z,0
2017-01-15T06:44:29.896Z,0
2017-01-15T06:45:29.894Z,0
2017-01-15T06:46:29.894Z,0
2017-01-15T06:47:29.908Z,0
2017-01-15T06:48:29.919Z,0
2017-01-15T06:49:29.922Z,0
2017-01-15T06:50:29.933Z,0
2017-01-15T06:51:29.949Z,0
2017-01-15T06:52:29.956Z,0
2017-01-15T06:53:29.966Z,0
2017-01-15T06:54:29.982Z,0
2017-01-15T06:55:29.992Z,0
2017-01-15T06:56:30.003Z,0
2017-01-15T06:57:30.129Z,0
2017-01-15T06:58:30.020Z,0
2017-01-15T06:59:30.036Z,0
2017-01-15T07:00:30.066Z,0
2017-01-15T07:01:30.052Z,0
2017-01-15T07:02:30.059Z,0
2017-01-15T07:03:30.083Z,0
2017-01-15T07:04:30.135Z,4
2017-01-15T07:05:30.089Z,4
2017-01-15T07:06:30.112Z,4
2017-01-15T07:07:30.122Z,4
2017-01-15T07:08:30.119Z,4
2017-01-15T07:09:30.142Z,4
2017-01-15T07:10:30.147Z,4
2017-01-15T07:11:30.195Z,4
2017-01-15T07:12:30.189Z,4
2017-01-15T07:13:30.210Z,4
2017-01-15T07:14:30.199Z,4
2017-01-15T07:15:30.202Z,4
2017-01-15T07:16:30.215Z,4
2017-01-15T07:17:30.226Z,0
2017-01-15T07:18:30.240Z,0
2017-01-15T07:19:30.248Z,4
2017-01-15T07:20:30.261Z,4
2017-01-15T07:21:30.425Z,4
2017-01-15T07:22:30.278Z,4
2017-01-15T07:23:30.293Z,4
2017-01-15T07:24:30.298Z,4
2017-01-15T07:25:30.313Z,8
2017-01-15T07:26:30.337Z,8
2017-01-15T07:27:30.339Z,4
2017-01-15T07:28:30.342Z,8
2017-01-15T07:29:30.473Z,4
2017-01-15T07:30:30.362Z,8
2017-01-15T07:31:30.754Z,8
2017-01-15T07:32:30.384Z,8
2017-01-15T07:33:30.396Z,12
2017-01-15T07:34:30.518Z,12
2017-01-15T07:35:30.423Z,12
2017-01-15T07:36:30.545Z,16
2017-01-15T07:37:30.556Z,16
2017-01-15T07:38:30.565Z,16
2017-01-15T07:39:30.461Z,24
2017-01-15T07:40:30.588Z,24
2017-01-15T07:41:30.481Z,24
2017-01-15T07:42:30.610Z,24
2017-01-15T07:43:30.506Z,28
2017-01-15T07:44:30.634Z,28
2017-01-15T07:45:30.639Z,28
2017-01-15T07:46:30.560Z,32
2017-01-15T07:47:30.545Z,32
2017-01-15T07:48:30.671Z,36
2017-01-15T07:49:30.680Z,40
2017-01-15T07:50:30.693Z,40
2017-01-15T07:51:30.597Z,40
2017-01-15T07:52:30.997Z,44
2017-01-15T07:53:30.611Z,40
2017-01-15T07:54:30.626Z,44
2017-01-15T07:55:30.662Z,48
2017-01-15T07:56:30.642Z,44
2017-01-15T07:57:30.661Z,44
2017-01-15T07:58:30.660Z,48
2017-01-15T07:59:30.676Z,48
2017-01-15T08:00:30.688Z,52
2017-01-15T08:01:30.697Z,52
2017-01-15T08:02:30.707Z,52
2017-01-15T08:03:30.831Z,56
2017-01-15T08:04:30.739Z,56
2017-01-15T08:05:30.859Z,56
2017-01-15T08:06:30.870Z,56
2017-01-15T08:07:30.761Z,56
2017-01-15T08:08:30.772Z,56
2017-01-15T08:09:30.978Z,56
2017-01-15T08:10:30.921Z,56
2017-01-15T08:11:30.921Z,60
2017-01-15T08:12:30.978Z,56
2017-01-15T08:13:30.949Z,64
2017-01-15T08:14:30.839Z,64
2017-01-15T08:15:30.973Z,64
2017-01-15T08:16:30.977Z,64
2017-01-15T08:17:30.876Z,64
2017-01-15T08:18:30.882Z,64
2017-01-15T08:19:30.896Z,64
2017-01-15T08:20:30.902Z,64
2017-01-15T08:21:31.030Z,60
2017-01-15T08:22:31.050Z,64
2017-01-15T08:23:31.050Z,64
2017-01-15T08:24:30.954Z,64
2017-01-15T08:25:30.956Z,64
2017-01-15T08:26:30.980Z,64
2017-01-15T08:27:30.980Z,68
2017-01-15T08:28:30.994Z,68
2017-01-15T08:29:31.112Z,68
2017-01-15T08:30:31.010Z,68
2017-01-15T08:31:31.018Z,68
2017-01-15T08:32:31.151Z,76
2017-01-15T08:33:31.141Z,76
2017-01-15T08:34:31.056Z,80
2017-01-15T08:35:31.068Z,80
2017-01-15T08:36:31.075Z,84
2017-01-15T08:37:31.086Z,80
2017-01-15T08:38:31.114Z,80
2017-01-15T08:39:31.105Z,84
2017-01-15T08:40:31.200Z,88
2017-01-15T08:41:31.246Z,88
2017-01-15T08:42:31.149Z,88
2017-01-15T08:43:31.261Z,84
2017-01-15T08:44:31.161Z,84
2017-01-15T08:45:31.171Z,84
2017-01-15T08:46:31.306Z,84
2017-01-15T08:47:31.204Z,88
2017-01-15T08:48:31.316Z,84
2017-01-15T08:49:31.213Z,88
2017-01-15T08:50:31.242Z,88
2017-01-15T08:51:31.244Z,92
2017-01-15T08:52:31.253Z,92
2017-01-15T08:53:31.262Z,92
2017-01-15T08:54:31.267Z,92
2017-01-15T08:55:31.288Z,80
2017-01-15T08:56:31.298Z,72
2017-01-15T08:57:31.429Z,68
2017-01-15T08:58:31.390Z,72
2017-01-15T08:59:31.333Z,72
2017-01-15T09:00:31.334Z,72
2017-01-15T09:01:31.344Z,76
2017-01-15T09:02:31.364Z,76
2017-01-15T09:03:31.366Z,80
2017-01-15T09:04:31.384Z,84
2017-01-15T09:05:31.391Z,88
2017-01-15T09:06:31.401Z,88
2017-01-15T09:07:31.539Z,92
2017-01-15T09:08:31.553Z,96
2017-01-15T09:09:31.549Z,104
2017-01-15T09:10:31.438Z,104
2017-01-15T09:11:31.459Z,108
2017-01-15T09:12:31.667Z,116
2017-01-15T09:13:31.487Z,116
2017-01-15T09:14:31.603Z,124
2017-01-15T09:15:31.624Z,128
2017-01-15T09:16:31.513Z,128
2017-01-15T09:17:31.521Z,136
2017-01-15T09:18:31.647Z,148
2017-01-15T09:19:31.545Z,156
2017-01-15T09:20:31.578Z,164
2017-01-15T09:21:31.563Z,168
2017-01-15T09:22:31.686Z,184
2017-01-15T09:23:31.702Z,188
2017-01-15T09:24:31.721Z,192
2017-01-15T09:25:31.753Z,188
2017-01-15T09:26:31.742Z,184
2017-01-15T09:27:31.780Z,184
2017-01-15T09:28:31.641Z,184
2017-01-15T09:29:31.650Z,188
2017-01-15T09:30:31.673Z,204
2017-01-15T09:31:31.673Z,216
2017-01-15T09:32:32.082Z,228
2017-01-15T09:33:31.695Z,240
2017-01-15T09:34:31.710Z,248
2017-01-15T09:35:31.716Z,256
2017-01-15T09:36:31.737Z,260
2017-01-15T09:37:31.737Z,264
2017-01-15T09:38:31.750Z,268
2017-01-15T09:39:31.762Z,268
2017-01-15T09:40:31.770Z,272
2017-01-15T09:41:31.782Z,276
2017-01-15T09:42:31.793Z,280
2017-01-15T09:43:31.812Z,280
2017-01-15T09:44:31.819Z,284
2017-01-15T09:45:31.830Z,284
2017-01-15T09:46:31.836Z,284
2017-01-15T09:47:31.880Z,284
2017-01-15T09:48:31.870Z,288
2017-01-15T09:49:31.874Z,288
2017-01-15T09:50:31.890Z,284
2017-01-15T09:51:31.896Z,284
2017-01-15T09:52:31.900Z,288
2017-01-15T09:53:31.916Z,284
2017-01-15T09:54:31.951Z,284
2017-01-15T09:55:31.930Z,284
2017-01-15T09:56:31.952Z,288
2017-01-15T09:57:31.957Z,288
2017-01-15T09:58:32.048Z,288
2017-01-15T09:59:31.985Z,292
2017-01-15T10:00:31.996Z,292
2017-01-15T10:01:32.008Z,292
2017-01-15T10:02:32.017Z,296
2017-01-15T10:03:32.025Z,300
2017-01-15T10:04:32.039Z,300
2017-01-15T10:05:32.081Z,304
2017-01-15T10:06:32.056Z,300
2017-01-15T10:07:32.072Z,296
2017-01-15T10:08:32.087Z,296
2017-01-15T10:09:32.088Z,292
2017-01-15T10:10:32.104Z,292
2017-01-15T10:11:32.123Z,288
2017-01-15T10:12:32.131Z,288
2017-01-15T10:13:32.135Z,288
2017-01-15T10:14:32.145Z,292
2017-01-15T10:15:32.160Z,296
2017-01-15T10:16:32.199Z,300
2017-01-15T10:17:32.182Z,304
2017-01-15T10:18:32.183Z,308
2017-01-15T10:19:32.213Z,312
2017-01-15T10:20:32.332Z,320
2017-01-15T10:21:32.225Z,324
2017-01-15T10:22:32.232Z,328
2017-01-15T10:23:32.258Z,324
2017-01-15T10:24:32.272Z,332
2017-01-15T10:25:32.269Z,340
2017-01-15T10:26:32.370Z,348
2017-01-15T10:27:32.287Z,356
2017-01-15T10:28:32.298Z,360
2017-01-15T10:29:32.316Z,364
2017-01-15T10:30:32.318Z,368
2017-01-15T10:31:32.328Z,356
2017-01-15T10:32:32.353Z,348
2017-01-15T10:33:32.781Z,348
2017-01-15T10:34:32.373Z,348
2017-01-15T10:35:32.373Z,352
2017-01-15T10:36:32.390Z,364
2017-01-15T10:37:32.397Z,380
2017-01-15T10:38:32.425Z,408
2017-01-15T10:39:32.425Z,436
2017-01-15T10:40:32.438Z,452
2017-01-15T10:41:32.447Z,480
2017-01-15T10:42:32.455Z,516
2017-01-15T10:43:32.467Z,544
2017-01-15T10:44:32.589Z,548
2017-01-15T10:45:32.487Z,548
2017-01-15T10:46:33.016Z,564
2017-01-15T10:47:32.508Z,584
2017-01-15T10:48:32.786Z,604
2017-01-15T10:49:32.535Z,616
2017-01-15T10:50:32.614Z,620
2017-01-15T10:51:32.555Z,656
2017-01-15T10:52:32.679Z,668
2017-01-15T10:53:32.577Z,656
2017-01-15T10:54:32.585Z,652
2017-01-15T10:55:32.603Z,668
2017-01-15T10:56:32.608Z,676
2017-01-15T10:57:32.623Z,680
2017-01-15T10:58:32.677Z,672
2017-01-15T10:59:32.640Z,664
2017-01-15T11:00:32.657Z,664
2017-01-15T11:01:32.667Z,644
2017-01-15T11:02:32.676Z,612
2017-01-15T11:03:32.692Z,596
2017-01-15T11:04:32.700Z,576
2017-01-15T11:05:32.714Z,564
2017-01-15T11:06:32.725Z,560
2017-01-15T11:07:32.743Z,564
2017-01-15T11:08:32.749Z,584
2017-01-15T11:09:32.750Z,584
2017-01-15T11:10:32.781Z,584
2017-01-15T11:11:32.777Z,592
2017-01-15T11:12:32.812Z,592
2017-01-15T11:13:32.809Z,576
2017-01-15T11:14:32.809Z,596
2017-01-15T11:15:32.825Z,616
2017-01-15T11:16:32.838Z,636
2017-01-15T11:17:33.054Z,684
2017-01-15T11:18:32.857Z,712
2017-01-15T11:19:32.865Z,732
2017-01-15T11:20:32.882Z,760
2017-01-15T11:21:32.887Z,784
2017-01-15T11:22:32.900Z,796
2017-01-15T11:23:32.917Z,836
2017-01-15T11:24:32.924Z,864
2017-01-15T11:25:33.067Z,896
2017-01-15T11:26:32.956Z,932
2017-01-15T11:27:32.958Z,960
2017-01-15T11:28:33.052Z,976
2017-01-15T11:29:32.979Z,960
2017-01-15T11:30:32.990Z,952
2017-01-15T11:31:33.006Z,932
2017-01-15T11:32:33.019Z,940
2017-01-15T11:33:33.024Z,960
2017-01-15T11:34:33.042Z,960
2017-01-15T11:35:33.049Z,944
2017-01-15T11:36:33.061Z,928
2017-01-15T11:37:33.223Z,908
2017-01-15T11:38:33.087Z,872
2017-01-15T11:39:33.092Z,832
2017-01-15T11:40:33.103Z,812
2017-01-15T11:41:33.130Z,800
2017-01-15T11:42:33.124Z,784
2017-01-15T11:43:33.138Z,756
2017-01-15T11:44:33.154Z,732
2017-01-15T11:45:33.163Z,720
2017-01-15T11:46:33.181Z,736
2017-01-15T11:47:33.185Z,756
2017-01-15T11:48:33.194Z,768
2017-01-15T11:49:33.212Z,764
2017-01-15T11:50:33.258Z,764
2017-01-15T11:51:33.233Z,772
2017-01-15T11:52:33.246Z,780
2017-01-15T11:53:33.273Z,792
2017-01-15T11:54:33.269Z,816
2017-01-15T11:55:33.279Z,836
2017-01-15T11:56:33.291Z,820
2017-01-15T11:57:33.298Z,876
2017-01-15T11:58:33.314Z,880
2017-01-15T11:59:33.322Z,860
2017-01-15T12:00:33.337Z,840
2017-01-15T12:01:33.341Z,832
2017-01-15T12:02:33.352Z,836
2017-01-15T12:03:33.368Z,720
2017-01-15T12:04:33.383Z,684
2017-01-15T12:05:33.401Z,752
2017-01-15T12:06:33.403Z,796
2017-01-15T12:07:33.423Z,816
2017-01-15T12:08:33.423Z,828
2017-01-15T12:09:33.435Z,840
2017-01-15T12:10:33.452Z,784
2017-01-15T12:11:33.569Z,732
2017-01-15T12:12:33.479Z,728
2017-01-15T12:13:33.487Z,748
2017-01-15T12:14:33.489Z,800
2017-01-15T12:15:33.534Z,836
2017-01-15T12:16:33.510Z,844
2017-01-15T12:17:33.533Z,828
2017-01-15T12:18:33.536Z,788
2017-01-15T12:19:33.555Z,832
2017-01-15T12:20:33.562Z,852
2017-01-15T12:21:33.574Z,808
2017-01-15T12:22:33.585Z,724
2017-01-15T12:23:33.597Z,712
2017-01-15T12:24:33.613Z,796
2017-01-15T12:25:33.616Z,836
2017-01-15T12:26:33.623Z,752
2017-01-15T12:27:34.046Z,696
2017-01-15T12:28:33.749Z,716
2017-01-15T12:29:33.663Z,784
2017-01-15T12:30:33.676Z,780
2017-01-15T12:31:33.690Z,696
2017-01-15T12:32:33.697Z,716
2017-01-15T12:33:33.708Z,732
2017-01-15T12:34:33.743Z,688
2017-01-15T12:35:33.739Z,688
2017-01-15T12:36:33.762Z,648
2017-01-15T12:37:33.765Z,720
2017-01-15T12:38:33.774Z,832
2017-01-15T12:39:33.783Z,764
2017-01-15T12:40:33.825Z,628
2017-01-15T12:41:33.802Z,592
2017-01-15T12:42:33.818Z,664
2017-01-15T12:43:33.824Z,720
2017-01-15T12:44:33.833Z,788
2017-01-15T12:45:33.844Z,816
2017-01-15T12:46:33.857Z,784
2017-01-15T12:47:33.873Z,732
2017-01-15T12:48:33.879Z,712
2017-01-15T12:49:33.889Z,716
2017-01-15T12:50:33.904Z,748
2017-01-15T12:51:33.928Z,776
2017-01-15T12:52:33.928Z,752
2017-01-15T12:53:33.937Z,736
2017-01-15T12:54:33.953Z,708
2017-01-15T12:55:33.958Z,676
2017-01-15T12:56:33.978Z,652
2017-01-15T12:57:33.990Z,676
2017-01-15T12:58:33.994Z,688
2017-01-15T12:59:34.004Z,692
2017-01-15T13:00:34.017Z,640
2017-01-15T13:01:34.023Z,548
2017-01-15T13:02:34.041Z,480
2017-01-15T13:03:34.050Z,436
2017-01-15T13:04:34.064Z,412
2017-01-15T13:05:34.075Z,416
2017-01-15T13:06:34.084Z,436
2017-01-15T13:07:34.098Z,468
2017-01-15T13:08:34.103Z,444
2017-01-15T13:09:34.114Z,408
2017-01-15T13:10:34.135Z,448
2017-01-15T13:11:34.142Z,464
2017-01-15T13:12:34.155Z,504
2017-01-15T13:13:34.165Z,484
2017-01-15T13:14:34.573Z,440
2017-01-15T13:15:34.195Z,432
2017-01-15T13:16:34.219Z,520
2017-01-15T13:17:34.208Z,504
2017-01-15T13:18:34.227Z,492
2017-01-15T13:19:34.228Z,420
2017-01-15T13:20:34.247Z,448
2017-01-15T13:21:34.254Z,436
2017-01-15T13:22:34.336Z,384
2017-01-15T13:23:34.282Z,360
2017-01-15T13:24:34.290Z,324
2017-01-15T13:25:34.306Z,388
2017-01-15T13:26:34.332Z,476
2017-01-15T13:27:34.322Z,428
2017-01-15T13:28:34.346Z,428
2017-01-15T13:29:34.348Z,416
2017-01-15T13:30:34.361Z,352
2017-01-15T13:31:34.368Z,376
2017-01-15T13:32:34.380Z,388
2017-01-15T13:33:34.401Z,376
2017-01-15T13:34:34.440Z,364
2017-01-15T13:35:34.461Z,368
2017-01-15T13:36:34.456Z,364
2017-01-15T13:37:35.333Z,348
2017-01-15T13:38:34.739Z,332
2017-01-15T13:39:34.630Z,332
2017-01-15T13:40:34.489Z,348
2017-01-15T13:41:34.531Z,348
2017-01-15T13:42:34.543Z,344
2017-01-15T13:43:34.504Z,352
2017-01-15T13:44:34.512Z,332
2017-01-15T13:45:34.536Z,312
2017-01-15T13:46:34.530Z,312
2017-01-15T13:47:34.557Z,320
2017-01-15T13:48:34.565Z,320
2017-01-15T13:49:34.570Z,324
2017-01-15T13:50:34.638Z,328
2017-01-15T13:51:34.592Z,328
2017-01-15T13:52:34.601Z,324
2017-01-15T13:53:34.616Z,328
2017-01-15T13:54:34.622Z,296
2017-01-15T13:55:34.636Z,280
2017-01-15T13:56:34.647Z,264
2017-01-15T13:57:34.658Z,256
2017-01-15T13:58:34.670Z,244
2017-01-15T13:59:34.682Z,236
2017-01-15T14:00:34.687Z,212
2017-01-15T14:01:34.709Z,192
2017-01-15T14:02:34.720Z,188
2017-01-15T14:03:34.724Z,196
2017-01-15T14:04:34.745Z,172
2017-01-15T14:05:34.750Z,172
2017-01-15T14:06:34.757Z,172
2017-01-15T14:07:34.768Z,176
2017-01-15T14:08:34.781Z,172
2017-01-15T14:09:34.795Z,172
2017-01-15T14:10:35.195Z,152
2017-01-15T14:11:34.816Z,144
2017-01-15T14:12:34.827Z,144
2017-01-15T14:13:34.838Z,148
2017-01-15T14:14:34.851Z,144
2017-01-15T14:15:34.864Z,132
2017-01-15T14:16:34.869Z,128
2017-01-15T14:17:34.886Z,128
2017-01-15T14:18:34.896Z,128
2017-01-15T14:19:34.912Z,124
2017-01-15T14:20:34.917Z,120